Latest Weather Observations for Rowley Shoals

IDW60801

Issued at 10:03 am WST Friday 28 August 2015 (issued every 30 minutes, with the page automatically refreshed every 10 minutes)

About weather observations | Map of weather stations | Latest weather observations for WA | Other Formats
Station Details ID: 200713 Name: ROWLEY SHOALS Lat: -17.52 Lon: 118.95 Height: 0.0 m
Data from the previous 72 hours. | See also: Recent months at Rowley Shoals
Date/Time
WST
Temp
°C
App
Temp
°C
Dew
Point
Rel
Hum
%
Delta-T
°C
Wind Press
QNH
hPa
Press
MSL
hPa
Rain
since 9 am
mm
Dir
 
Spd
km/h
Gust
km/h
Spd
kts
Gust
kts
28/10:00am - - - - - SW 9 11 5 6 1016.9 1016.9 -
28/09:30am - - - - - S 7 9 4 5 1017.2 1017.2 -
28/09:00am - - - - - SW 7 11 4 6 1017.1 1017.1 -
28/08:30am - - - - - S 7 9 4 5 1016.8 1016.8 -
28/08:00am - - - - - S 7 11 4 6 1016.7 1016.7 -
28/07:30am - - - - - S 7 9 4 5 1016.4 1016.4 -
28/07:00am - - - - - SSW 9 13 5 7 1016.0 1016.1 -
28/06:30am - - - - - S 7 13 4 7 1015.7 1015.7 -
28/06:00am - - - - - SW 9 13 5 7 1015.2 1015.3 -
28/05:30am - - - - - SW 9 15 5 8 1014.9 1014.9 -
28/05:00am - - - - - SW 13 17 7 9 1014.5 1014.6 -
28/04:30am - - - - - SW 11 15 6 8 1014.5 1014.5 -
28/04:00am - - - - - WSW 13 15 7 8 1014.3 1014.4 -
28/03:30am - - - - - WSW 13 15 7 8 1014.3 1014.3 -
28/03:00am - - - - - SW 13 17 7 9 1014.4 1014.4 -
28/02:30am - - - - - W 13 19 7 10 1014.5 1014.5 -
28/02:00am - - - - - WSW 15 19 8 10 1014.7 1014.6 -
28/01:30am - - - - - WSW 15 20 8 11 1014.9 1014.9 -
28/01:00am - - - - - WSW 13 17 7 9 1015.1 1015.1 -
28/12:30am - - - - - WSW 15 17 8 9 1015.3 1015.3 -
28/12:00am - - - - - WSW 15 20 8 11 1015.5 1015.5 -
 
Date/Time
WST
Temp
°C
App
Temp
°C
Dew
Point
Rel
Hum
%
Delta-T
°C
Wind Press
QNH
hPa
Press
MSL
hPa
Rain
since 9 am
mm
Dir
 
Spd
km/h
Gust
km/h
Spd
kts
Gust
kts
27/11:30pm - - - - - WSW 13 17 7 9 1015.7 1015.7 -
27/11:00pm - - - - - W 15 20 8 11 1015.8 1015.8 -
27/10:30pm - - - - - W 15 19 8 10 1015.8 1015.8 -
27/10:00pm - - - - - W 13 20 7 11 1015.8 1015.8 -
27/09:30pm - - - - - W 17 20 9 11 1015.9 1015.9 -
27/09:00pm - - - - - WNW 15 20 8 11 1015.7 1015.7 -
27/08:30pm - - - - - W 15 20 8 11 1015.6 1015.6 -
27/08:00pm - - - - - WNW 13 17 7 9 1015.4 1015.5 -
27/07:30pm - - - - - NW 13 17 7 9 1015.3 1015.3 -
27/07:00pm - - - - - WNW 13 15 7 8 1015.1 1015.2 -
27/06:30pm - - - - - NW 13 17 7 9 1014.5 1014.5 -
27/06:00pm - - - - - NW 11 15 6 8 1014.3 1014.4 -
27/05:30pm - - - - - NW 9 13 5 7 1014.2 1014.2 -
27/05:00pm - - - - - WNW 11 15 6 8 1014.1 1014.1 -
27/04:30pm - - - - - WNW 9 15 5 8 1013.9 1013.9 -
27/04:00pm - - - - - NW 9 13 5 7 1013.9 1013.9 -
27/03:30pm - - - - - W 7 9 4 5 1014.0 1014.0 -
27/03:00pm - - - - - NW 7 11 4 6 1014.1 1014.1 -
27/02:30pm - - - - - WNW 4 7 2 4 1014.3 1014.3 -
27/02:00pm - - - - - CALM 0 6 0 3 1014.6 1014.5 -
27/01:30pm - - - - - NNE 6 7 3 4 1014.8 1014.8 -
27/01:00pm - - - - - NW 6 7 3 4 1015.0 1014.9 -
27/12:30pm - - - - - NW 2 7 1 4 1015.3 1015.3 -
27/12:00pm - - - - - WSW 2 7 1 4 1015.7 1015.6 -
27/11:30am - - - - - CALM 0 0 0 0 1016.0 1016.0 -
27/11:00am - - - - - SSW 4 6 2 3 1016.3 1016.3 -
27/10:30am - - - - - S 6 9 3 5 1016.6 1016.6 -
27/10:00am - - - - - SSE 9 11 5 6 1016.9 1016.8 -
27/09:30am - - - - - SE 9 11 5 6 1017.0 1017.0 -
27/09:00am - - - - - SSE 9 11 5 6 1016.8 1016.8 -
27/08:30am - - - - - SSE 9 13 5 7 1016.6 1016.6 -
27/08:00am - - - - - SSE 15 17 8 9 1016.3 1016.4 -
27/07:30am - - - - - SSE 11 15 6 8 1015.8 1015.8 -
27/07:00am - - - - - S 9 13 5 7 1015.4 1015.5 -
27/06:30am - - - - - SSE 6 7 3 4 1015.0 1015.0 -
27/06:00am - - - - - SW 9 11 5 6 1014.6 1014.7 -
27/05:30am - - - - - SSW 7 13 4 7 1014.1 1014.1 -
27/05:00am - - - - - SW 7 11 4 6 1013.9 1013.9 -
27/04:30am - - - - - SW 9 15 5 8 1013.8 1013.8 -
27/04:00am - - - - - SW 17 20 9 11 1013.7 1013.7 -
27/03:30am - - - - - WSW 15 19 8 10 1013.8 1013.8 -
27/03:00am - - - - - WSW 13 17 7 9 1013.7 1013.7 -
27/02:30am - - - - - W 11 15 6 8 1013.9 1013.9 -
27/02:00am - - - - - WSW 9 13 5 7 1014.1 1014.1 -
27/01:30am - - - - - WSW 13 17 7 9 1014.3 1014.3 -
27/01:00am - - - - - WSW 11 15 6 8 1014.5 1014.5 -
27/12:30am - - - - - WSW 11 15 6 8 1014.6 1014.6 -
27/12:00am - - - - - W 11 15 6 8 1014.9 1014.8 -
 
Date/Time
WST
Temp
°C
App
Temp
°C
Dew
Point
Rel
Hum
%
Delta-T
°C
Wind Press
QNH
hPa
Press
MSL
hPa
Rain
since 9 am
mm
Dir
 
Spd
km/h
Gust
km/h
Spd
kts
Gust
kts
26/11:30pm - - - - - WSW 13 17 7 9 1015.1 1015.1 -
26/11:00pm - - - - - WNW 9 13 5 7 1015.1 1015.1 -
26/10:30pm - - - - - WNW 6 9 3 5 1015.2 1015.2 -
26/10:00pm - - - - - NW 9 11 5 6 1015.3 1015.3 -
26/09:30pm - - - - - NW 9 13 5 7 1015.3 1015.3 -
26/09:00pm - - - - - WNW 11 15 6 8 1015.2 1015.2 -
26/08:30pm - - - - - WNW 9 13 5 7 1015.0 1015.0 -
26/08:00pm - - - - - NW 6 7 3 4 1014.8 1014.9 -
26/07:30pm - - - - - WNW 7 11 4 6 1014.6 1014.6 -
26/07:00pm - - - - - NW 7 9 4 5 1014.4 1014.5 -
26/06:30pm - - - - - NW 9 11 5 6 1014.3 1014.3 -
26/06:00pm - - - - - NW 6 9 3 5 1014.1 1014.2 -
26/05:30pm - - - - - NW 7 11 4 6 1013.9 1013.9 -
26/05:00pm - - - - - W 7 9 4 5 1013.7 1013.8 -
26/04:30pm - - - - - WSW 7 9 4 5 1013.4 1013.4 -
26/04:00pm - - - - - S 6 9 3 5 1013.2 1013.3 -
26/03:30pm - - - - - SW 6 9 3 5 1013.2 1013.2 -
26/03:00pm - - - - - SSE 6 7 3 4 1013.2 1013.2 -
26/02:30pm - - - - - S 6 9 3 5 1013.5 1013.5 -
26/02:00pm - - - - - SE 6 9 3 5 1013.9 1013.8 -
26/01:30pm - - - - - S 6 7 3 4 1014.2 1014.2 -
26/01:00pm - - - - - SE 6 9 3 5 1014.5 1014.4 -
26/12:30pm - - - - - S 6 7 3 4 1014.8 1014.8 -
26/12:00pm - - - - - ESE 4 11 2 6 1015.1 1015.0 -
26/11:30am - - - - - SSE 2 7 1 4 1015.5 1015.5 -
26/11:00am - - - - - S 6 7 3 4 1016.0 1015.9 -
26/10:30am - - - - - ESE 7 7 4 4 1016.3 1016.3 -
26/10:00am - - - - - SSW 4 7 2 4 1016.6 1016.5 -
26/09:30am - - - - - SSE 6 7 3 4 1016.7 1016.7 -
26/09:00am - - - - - SSE 7 11 4 6 1016.8 1016.8 -
26/08:30am - - - - - ESE 7 9 4 5 1016.6 1016.6 -
26/08:00am - - - - - SE 4 9 2 5 1016.4 1016.5 -
26/07:30am - - - - - CALM 0 4 0 2 1016.3 1016.3 -
26/07:00am - - - - - SSE 7 11 4 6 1015.9 1016.0 -
26/06:30am - - - - - SSE 7 9 4 5 1015.7 1015.7 -
26/06:00am - - - - - S 9 11 5 6 1015.4 1015.5 -
26/05:30am - - - - - SSW 13 19 7 10 1015.0 1015.0 -
26/05:00am - - - - - SW 13 17 7 9 1014.6 1014.6 -
26/04:30am - - - - - SW 13 17 7 9 1014.2 1014.2 -
26/04:00am - - - - - SSW 9 17 5 9 1014.1 1014.1 -
26/03:30am - - - - - SSW 9 11 5 6 1014.0 1014.0 -
26/03:00am - - - - - W 6 7 3 4 1014.1 1014.1 -
26/02:30am - - - - - W 6 9 3 5 1014.1 1014.1 -
26/02:00am - - - - - W 7 11 4 6 1014.1 1014.1 -
26/01:30am - - - - - W 9 11 5 6 1014.2 1014.2 -
26/01:00am - - - - - W 9 13 5 7 1014.5 1014.5 -
26/12:30am - - - - - W 11 13 6 7 1014.8 1014.8 -
26/12:00am - - - - - WSW 9 13 5 7 1015.0 1015.0 -
 
Date/Time
WST
Temp
°C
App
Temp
°C
Dew
Point
Rel
Hum
%
Delta-T
°C
Wind Press
QNH
hPa
Press
MSL
hPa
Rain
since 9 am
mm
Dir
 
Spd
km/h
Gust
km/h
Spd
kts
Gust
kts
25/11:30pm - - - - - WSW 11 15 6 8 1015.0 1015.0 -
25/11:00pm - - - - - WSW 11 15 6 8 1015.0 1015.0 -
25/10:30pm - - - - - SW 13 17 7 9 1015.1 1015.1 -
25/10:00pm - - - - - SW 13 17 7 9 1015.4 1015.3 -
25/09:30pm - - - - - WSW 13 19 7 10 1015.3 1015.3 -
25/09:00pm - - - - - SW 13 17 7 9 1015.2 1015.3 -
25/08:30pm - - - - - SW 13 17 7 9 1015.2 1015.2 -
25/08:00pm - - - - - SSW 13 15 7 8 1015.1 1015.0 -
25/07:30pm - - - - - SW 11 15 6 8 1014.9 1014.9 -
25/07:00pm - - - - - SW 13 17 7 9 1014.7 1014.8 -
25/06:30pm - - - - - SW 13 17 7 9 1014.5 1014.5 -
25/06:00pm - - - - - SW 11 15 6 8 1014.2 1014.4 -
25/05:30pm - - - - - SW 9 13 5 7 1014.0 1014.0 -
25/05:00pm - - - - - SSW 9 11 5 6 1013.8 1013.8 -
25/04:30pm - - - - - SSW 9 15 5 8 1013.6 1013.6 -
25/04:00pm - - - - - SSW 9 13 5 7 1013.7 1013.7 -
25/03:30pm - - - - - SSW 11 15 6 8 1013.6 1013.6 -
25/03:00pm - - - - - SSW 9 13 5 7 1013.6 1013.6 -
25/02:30pm - - - - - SSW 7 11 4 6 1014.0 1014.0 -
25/02:00pm - - - - - SSW 7 9 4 5 1014.2 1014.1 -
25/01:30pm - - - - - SSW 7 9 4 5 1014.5 1014.5 -
25/01:00pm - - - - - S 9 15 5 8 1014.8 1014.7 -
25/12:30pm - - - - - S 6 9 3 5 1015.1 1015.1 -
25/12:00pm - - - - - S 6 9 3 5 1015.5 1015.3 -
25/11:30am - - - - - SSE 7 9 4 5 1015.9 1015.9 -
25/11:00am - - - - - SSE 7 9 4 5 1016.3 1016.2 -
25/10:30am - - - - - SSW 6 11 3 6 1016.6 1016.6 -

Other Formats:

Comma delimited format used in spreadsheet applications
http://www.bom.gov.au/fwo/IDW60801/IDW60801.94207.axf

JavaScript Object Notation format (JSON) in row-major order
http://www.bom.gov.au/fwo/IDW60801/IDW60801.94207.json